createdAt,value
2023-03-12T00:00:42.130Z,100.00
2023-03-12T00:03:28.524Z,100.00
2023-03-12T00:06:19.192Z,100.00
2023-03-12T00:09:06.074Z,100.00
2023-03-12T00:11:52.687Z,100.00
2023-03-12T00:14:39.347Z,100.00
2023-03-12T00:17:25.842Z,100.00
2023-03-12T00:20:12.616Z,100.00
2023-03-12T00:22:59.441Z,100.00
2023-03-12T00:25:46.946Z,100.00
2023-03-12T00:28:35.003Z,100.00
2023-03-12T00:31:32.631Z,100.00
2023-03-12T00:34:19.162Z,100.00
2023-03-12T00:37:05.540Z,100.00
2023-03-12T00:39:52.370Z,100.00
2023-03-12T00:42:38.577Z,100.00
2023-03-12T00:45:25.219Z,100.00
2023-03-12T00:48:11.480Z,100.00
2023-03-12T00:50:57.781Z,100.00
2023-03-12T00:53:44.006Z,100.00
2023-03-12T00:56:30.849Z,100.00
2023-03-12T00:59:17.418Z,100.00
2023-03-12T01:02:04.444Z,100.00
2023-03-12T01:04:51.032Z,100.00
2023-03-12T01:07:37.813Z,100.00
2023-03-12T01:10:24.159Z,100.00
2023-03-12T01:13:10.485Z,100.00
2023-03-12T01:15:56.755Z,100.00
2023-03-12T01:18:43.322Z,100.00
2023-03-12T01:21:31.047Z,100.00
2023-03-12T01:24:17.852Z,100.00
2023-03-12T01:27:04.473Z,100.00
2023-03-12T01:29:50.676Z,100.00
2023-03-12T01:32:37.412Z,100.00
2023-03-12T01:35:24.646Z,100.00
2023-03-12T01:38:15.195Z,100.00
2023-03-12T01:41:01.739Z,100.00
2023-03-12T01:43:48.108Z,100.00
2023-03-12T01:46:38.327Z,100.00
2023-03-12T01:49:33.313Z,100.00
2023-03-12T01:52:29.375Z,100.00
2023-03-12T01:55:17.738Z,100.00
2023-03-12T01:58:07.098Z,100.00
2023-03-12T02:00:54.783Z,100.00
2023-03-12T02:03:41.974Z,100.00
2023-03-12T02:06:43.756Z,100.00
2023-03-12T02:09:33.495Z,100.00
2023-03-12T02:12:20.168Z,100.00
2023-03-12T02:15:07.136Z,100.00
2023-03-12T02:17:54.189Z,100.00
2023-03-12T02:21:01.172Z,100.00
2023-03-12T02:23:56.101Z,100.00
2023-03-12T02:26:43.141Z,100.00
2023-03-12T02:29:32.997Z,100.00
2023-03-12T02:32:29.765Z,100.00
2023-03-12T02:35:17.298Z,100.00
2023-03-12T02:38:04.345Z,100.00
2023-03-12T02:40:51.884Z,100.00
2023-03-12T02:43:39.196Z,100.00
2023-03-12T02:46:26.920Z,100.00
2023-03-12T02:49:14.365Z,100.00
2023-03-12T02:52:01.804Z,100.00
2023-03-12T02:54:48.785Z,100.00
2023-03-12T02:57:37.641Z,100.00
2023-03-12T03:00:26.800Z,100.00
2023-03-12T03:03:15.129Z,100.00
2023-03-12T03:06:01.632Z,100.00
2023-03-12T03:08:48.315Z,100.00
2023-03-12T03:11:35.006Z,100.00
2023-03-12T03:14:23.487Z,100.00
2023-03-12T03:17:10.811Z,100.00
2023-03-12T03:19:57.775Z,100.00
2023-03-12T03:22:44.140Z,100.00
2023-03-12T03:25:30.446Z,100.00
2023-03-12T03:28:17.024Z,100.00
2023-03-12T03:31:03.883Z,100.00
2023-03-12T03:33:54.503Z,100.00
2023-03-12T03:36:40.699Z,100.00
2023-03-12T03:39:31.357Z,100.00
2023-03-12T03:42:17.684Z,100.00
2023-03-12T03:45:06.007Z,100.00
2023-03-12T03:47:52.792Z,100.00
2023-03-12T03:50:39.543Z,100.00
2023-03-12T03:53:26.213Z,100.00
2023-03-12T03:56:15.804Z,100.00
2023-03-12T03:59:07.722Z,100.00
2023-03-12T04:01:57.369Z,100.00
2023-03-12T04:04:44.655Z,100.00
2023-03-12T04:07:31.303Z,100.00
2023-03-12T04:10:20.384Z,100.00
2023-03-12T04:13:06.897Z,100.00
2023-03-12T04:15:53.857Z,100.00
2023-03-12T04:18:40.780Z,100.00
2023-03-12T04:21:27.570Z,100.00
2023-03-12T04:24:16.275Z,100.00
2023-03-12T04:27:03.721Z,100.00
2023-03-12T04:29:51.575Z,100.00
2023-03-12T04:32:37.942Z,100.00
2023-03-12T04:35:25.015Z,100.00
2023-03-12T04:38:11.665Z,100.00
2023-03-12T04:41:02.389Z,100.00
2023-03-12T04:43:49.250Z,100.00
2023-03-12T04:46:37.283Z,100.00
2023-03-12T04:49:24.555Z,100.00
2023-03-12T04:52:11.130Z,100.00
2023-03-12T04:54:59.358Z,100.00
2023-03-12T04:57:45.662Z,100.00
2023-03-12T05:00:32.160Z,100.00
2023-03-12T05:03:18.670Z,100.00
2023-03-12T05:06:05.912Z,100.00
2023-03-12T05:08:52.922Z,100.00
2023-03-12T05:11:39.996Z,100.00
2023-03-12T05:14:29.309Z,100.00
2023-03-12T05:17:16.134Z,100.00
2023-03-12T05:20:04.530Z,100.00
2023-03-12T05:22:50.908Z,100.00
2023-03-12T05:25:41.575Z,100.00
2023-03-12T05:28:29.197Z,100.00
2023-03-12T05:31:18.927Z,100.00
2023-03-12T05:34:05.742Z,100.00
2023-03-12T05:36:56.759Z,100.00
2023-03-12T05:39:48.323Z,100.00
2023-03-12T05:42:36.194Z,100.00
2023-03-12T05:45:23.289Z,100.00
2023-03-12T05:48:13.519Z,100.00
2023-03-12T05:50:59.974Z,100.00
2023-03-12T05:53:46.728Z,100.00
2023-03-12T05:56:35.725Z,100.00
2023-03-12T05:59:22.740Z,100.00
2023-03-12T06:02:10.211Z,100.00
2023-03-12T06:04:58.380Z,100.00
2023-03-12T06:07:45.008Z,100.00
2023-03-12T06:10:31.763Z,100.00
2023-03-12T06:13:18.601Z,100.00
2023-03-12T06:16:14.463Z,100.00
2023-03-12T06:19:02.761Z,100.00
2023-03-12T06:21:49.549Z,100.00
2023-03-12T06:24:35.690Z,100.00
2023-03-12T06:27:24.934Z,100.00
2023-03-12T06:30:11.910Z,100.00
2023-03-12T06:32:58.256Z,100.00
2023-03-12T06:35:45.641Z,100.00
2023-03-12T06:38:32.447Z,100.00
2023-03-12T06:41:19.557Z,100.00
2023-03-12T06:44:06.261Z,100.00
2023-03-12T06:46:53.033Z,100.00
2023-03-12T06:49:39.353Z,100.00
2023-03-12T06:52:25.740Z,100.00
2023-03-12T06:55:12.227Z,100.00
2023-03-12T06:57:58.607Z,100.00
2023-03-12T07:00:45.101Z,100.00
2023-03-12T07:03:31.557Z,100.00
2023-03-12T07:06:21.190Z,100.00
2023-03-12T07:09:07.858Z,100.00
2023-03-12T07:11:54.394Z,100.00
2023-03-12T07:14:40.881Z,100.00
2023-03-12T07:17:27.321Z,100.00
2023-03-12T07:20:14.027Z,100.00
2023-03-12T07:23:00.532Z,100.00
2023-03-12T07:25:47.918Z,100.00
2023-03-12T07:28:34.339Z,100.00
2023-03-12T07:31:20.861Z,100.00
2023-03-12T07:34:07.648Z,100.00
2023-03-12T07:36:54.976Z,100.00
2023-03-12T07:39:41.825Z,100.00
2023-03-12T07:42:28.271Z,100.00
2023-03-12T07:45:16.510Z,100.00
2023-03-12T07:48:03.264Z,100.00
2023-03-12T07:50:49.632Z,100.00
2023-03-12T07:53:35.874Z,100.00
2023-03-12T07:56:23.037Z,100.00
2023-03-12T07:59:09.696Z,100.00
2023-03-12T08:01:55.999Z,100.00
2023-03-12T08:04:42.679Z,100.00
2023-03-12T08:07:32.511Z,100.00
2023-03-12T08:10:19.708Z,100.00
2023-03-12T08:13:06.121Z,100.00
2023-03-12T08:15:54.114Z,100.00
2023-03-12T08:18:40.556Z,100.00
2023-03-12T08:21:27.097Z,100.00
2023-03-12T08:24:13.742Z,100.00
2023-03-12T08:27:00.205Z,100.00
2023-03-12T08:29:46.576Z,100.00
2023-03-12T08:32:33.089Z,100.00
2023-03-12T08:35:19.630Z,100.00
2023-03-12T08:38:06.048Z,100.00
2023-03-12T08:40:57.643Z,100.00
2023-03-12T08:43:43.951Z,100.00
2023-03-12T08:46:30.099Z,100.00
2023-03-12T08:49:16.331Z,100.00
2023-03-12T08:52:02.557Z,100.00
2023-03-12T08:54:48.728Z,100.00
2023-03-12T08:57:35.324Z,100.00
2023-03-12T09:00:22.450Z,100.00
2023-03-12T09:03:12.343Z,100.00
2023-03-12T09:06:05.066Z,100.00
2023-03-12T09:08:51.782Z,100.00
2023-03-12T09:11:39.896Z,100.00
2023-03-12T09:15:01.404Z,100.00
2023-03-12T09:17:32.756Z,100.00
2023-03-12T09:20:18.896Z,100.00
2023-03-12T09:23:07.649Z,100.00
2023-03-12T09:25:55.019Z,100.00
2023-03-12T09:28:42.511Z,100.00
2023-03-12T09:31:28.912Z,100.00
2023-03-12T09:34:15.594Z,100.00
2023-03-12T09:37:01.692Z,100.00
2023-03-12T09:39:50.088Z,100.00
2023-03-12T09:42:47.596Z,100.00
2023-03-12T09:45:39.343Z,100.00
2023-03-12T09:48:33.999Z,100.00
2023-03-12T09:51:54.689Z,100.00
2023-03-12T09:55:17.449Z,100.00
2023-03-12T09:58:04.234Z,100.00
2023-03-12T10:00:55.043Z,100.00
2023-03-12T10:04:14.238Z,100.00
2023-03-12T10:07:23.081Z,100.00
2023-03-12T10:10:25.255Z,100.00
2023-03-12T10:13:11.594Z,100.00
2023-03-12T10:16:17.193Z,100.00
2023-03-12T10:19:22.072Z,100.00
2023-03-12T10:22:34.539Z,100.00
2023-03-12T10:25:35.157Z,100.00
2023-03-12T10:28:29.549Z,100.00
2023-03-12T10:31:24.281Z,100.00
2023-03-12T10:34:21.293Z,100.00
2023-03-12T10:37:31.547Z,100.00
2023-03-12T10:40:26.898Z,100.00
2023-03-12T10:43:13.717Z,100.00
2023-03-12T10:46:15.474Z,100.00
2023-03-12T10:49:20.859Z,100.00
2023-03-12T10:52:36.800Z,100.00
2023-03-12T10:55:26.896Z,100.00
2023-03-12T10:58:24.908Z,100.00
2023-03-12T11:01:27.363Z,100.00
2023-03-12T11:04:29.840Z,100.00
2023-03-12T11:07:26.697Z,100.00
2023-03-12T11:10:21.314Z,100.00
2023-03-12T11:13:34.343Z,100.00
2023-03-12T11:16:21.003Z,100.00
2023-03-12T11:19:08.308Z,100.00
2023-03-12T11:22:01.294Z,100.00
2023-03-12T11:25:05.969Z,100.00
2023-03-12T11:28:20.887Z,100.00
2023-03-12T11:31:48.671Z,100.00
2023-03-12T11:34:38.102Z,100.00
2023-03-12T11:37:27.514Z,100.00
2023-03-12T11:40:33.109Z,100.00
2023-03-12T11:43:42.180Z,100.00
2023-03-12T11:47:07.052Z,100.00
2023-03-12T11:50:13.377Z,100.00
2023-03-12T11:53:17.313Z,100.00
2023-03-12T12:01:07.645Z,100.00
2023-03-12T12:04:00.200Z,100.00
2023-03-12T12:07:02.946Z,100.00
2023-03-12T12:10:14.284Z,100.00
2023-03-12T12:13:24.122Z,100.00
2023-03-12T12:16:29.185Z,100.00
2023-03-12T12:19:27.998Z,100.00
2023-03-12T12:22:30.174Z,100.00
2023-03-12T12:25:19.739Z,97.45
2023-03-12T12:28:36.334Z,98.33
2023-03-12T12:31:29.146Z,97.44
2023-03-12T12:34:30.768Z,96.59
2023-03-12T12:37:42.330Z,94.79
2023-03-12T12:40:38.552Z,93.33
2023-03-12T12:43:32.616Z,93.60
2023-03-12T12:46:23.731Z,93.41
2023-03-12T12:49:19.628Z,94.93
2023-03-12T12:52:08.573Z,96.28
2023-03-12T12:55:26.023Z,94.91
2023-03-12T12:58:23.361Z,95.10
2023-03-12T13:01:10.291Z,95.40
2023-03-12T13:04:04.558Z,96.42
2023-03-12T13:07:02.528Z,96.90
2023-03-12T13:09:54.539Z,97.21
2023-03-12T13:12:51.848Z,95.95
2023-03-12T13:15:43.505Z,94.01
2023-03-12T13:18:31.309Z,91.36
2023-03-12T13:21:26.612Z,91.44
2023-03-12T13:24:18.705Z,92.71
2023-03-12T13:27:29.890Z,94.72
2023-03-12T13:30:34.712Z,94.52
2023-03-12T13:33:45.278Z,93.56
2023-03-12T13:36:36.966Z,89.77
2023-03-12T13:39:32.563Z,85.26
2023-03-12T13:42:34.990Z,88.33
2023-03-12T13:45:31.727Z,90.69
2023-03-12T13:48:21.283Z,93.78
2023-03-12T13:51:17.068Z,95.49
2023-03-12T13:54:04.637Z,95.13
2023-03-12T13:56:58.541Z,93.31
2023-03-12T13:59:46.760Z,93.50
2023-03-12T14:02:36.696Z,93.57
2023-03-12T14:05:23.733Z,92.99
2023-03-12T14:08:40.374Z,92.08
2023-03-12T14:11:46.638Z,90.57
2023-03-12T14:15:02.779Z,90.21
2023-03-12T14:17:58.329Z,89.62
2023-03-12T14:20:53.816Z,89.17
2023-03-12T14:23:46.080Z,83.92
2023-03-12T14:26:35.694Z,82.68
2023-03-12T14:29:30.637Z,81.41
2023-03-12T14:32:23.748Z,84.45
2023-03-12T14:35:19.514Z,82.74
2023-03-12T14:38:20.387Z,81.87
2023-03-12T14:41:06.919Z,82.42
2023-03-12T14:43:54.360Z,77.34
2023-03-12T14:46:55.134Z,78.00
2023-03-12T14:49:45.085Z,78.96
2023-03-12T14:52:34.026Z,76.07
2023-03-12T14:55:23.664Z,75.96
2023-03-12T14:58:19.092Z,74.79
2023-03-12T15:01:07.488Z,75.03
2023-03-12T15:04:01.210Z,76.30
2023-03-12T15:06:53.953Z,77.19
2023-03-12T15:09:47.183Z,78.03
2023-03-12T15:12:37.111Z,78.42
2023-03-12T15:15:36.171Z,78.84
2023-03-12T15:18:27.175Z,79.35
2023-03-12T15:21:13.806Z,79.12
2023-03-12T15:24:00.507Z,80.37
2023-03-12T15:26:47.006Z,80.05
2023-03-12T15:29:33.616Z,79.88
2023-03-12T15:32:22.654Z,79.59
2023-03-12T15:35:13.703Z,80.41
2023-03-12T15:38:00.986Z,80.55
2023-03-12T15:40:53.867Z,80.37
2023-03-12T15:43:44.018Z,79.58
2023-03-12T15:46:30.386Z,79.90
2023-03-12T15:49:30.191Z,80.83
2023-03-12T15:52:19.384Z,79.26
2023-03-12T15:55:11.990Z,80.14
2023-03-12T15:57:59.091Z,81.33
2023-03-12T16:00:45.774Z,82.06
2023-03-12T16:03:31.891Z,80.96
2023-03-12T16:06:23.131Z,80.78
2023-03-12T16:09:15.916Z,81.58
2023-03-12T16:12:02.572Z,81.11
2023-03-12T16:14:49.497Z,81.51
2023-03-12T16:17:35.650Z,81.88
2023-03-12T16:20:22.133Z,81.52
2023-03-12T16:23:08.549Z,82.98
2023-03-12T16:25:56.441Z,83.45
2023-03-12T16:28:43.170Z,82.24
2023-03-12T16:31:29.848Z,83.81
2023-03-12T16:34:16.131Z,84.27
2023-03-12T16:37:02.299Z,84.46
2023-03-12T16:39:49.526Z,84.38
2023-03-12T16:42:36.120Z,83.98
2023-03-12T16:45:23.064Z,83.33
2023-03-12T16:48:15.581Z,84.47
2023-03-12T16:51:02.342Z,83.04
2023-03-12T16:54:02.015Z,82.33
2023-03-12T16:56:53.836Z,83.19
2023-03-12T16:59:40.190Z,83.77
2023-03-12T17:02:28.327Z,83.10
2023-03-12T17:05:15.470Z,83.53
2023-03-12T17:08:01.771Z,86.26
2023-03-12T17:10:48.432Z,86.21
2023-03-12T17:13:36.012Z,87.73
2023-03-12T17:16:22.510Z,87.44
2023-03-12T17:19:09.015Z,88.69
2023-03-12T17:21:55.455Z,88.46
2023-03-12T17:24:41.968Z,91.53
2023-03-12T17:27:29.199Z,93.69
2023-03-12T17:52:55.788Z,92.84
2023-03-12T17:55:42.514Z,92.35
2023-03-12T17:58:28.719Z,93.38
2023-03-12T18:01:15.707Z,92.66
2023-03-12T18:04:02.310Z,92.25
2023-03-12T18:06:48.659Z,92.52
2023-03-12T18:09:35.868Z,92.43
2023-03-12T18:12:22.064Z,93.45
2023-03-12T18:15:12.346Z,93.42
2023-03-12T18:17:59.681Z,95.53
2023-03-12T18:20:48.111Z,95.38
2023-03-12T18:23:34.609Z,93.69
2023-03-12T18:26:21.117Z,93.29
2023-03-12T18:29:07.694Z,94.04
2023-03-12T18:31:54.162Z,92.85
2023-03-12T18:34:42.400Z,93.26
2023-03-12T18:37:28.922Z,91.78
2023-03-12T18:40:15.628Z,91.08
2023-03-12T18:43:02.890Z,91.32
2023-03-12T18:45:49.843Z,91.12
2023-03-12T18:48:36.542Z,90.96
2023-03-12T18:51:23.149Z,91.24
2023-03-12T18:54:09.625Z,90.89
2023-03-12T18:56:55.926Z,90.69
2023-03-12T18:59:45.291Z,91.21
2023-03-12T19:02:31.720Z,90.85
2023-03-12T19:05:18.161Z,90.39
2023-03-12T19:08:05.932Z,92.11
2023-03-12T19:10:52.445Z,93.78
2023-03-12T19:13:39.074Z,95.69
2023-03-12T19:16:25.571Z,97.20
2023-03-12T19:19:12.402Z,98.91
2023-03-12T19:21:59.156Z,100.00
2023-03-12T19:24:45.371Z,100.00
2023-03-12T19:27:31.709Z,100.00
2023-03-12T19:30:18.364Z,100.00
2023-03-12T19:33:04.844Z,100.00
2023-03-12T19:35:52.071Z,100.00
2023-03-12T19:38:38.912Z,100.00
2023-03-12T19:41:25.469Z,100.00
2023-03-12T19:44:11.907Z,100.00
2023-03-12T19:46:58.535Z,99.83
2023-03-12T19:49:45.194Z,99.54
2023-03-12T19:52:31.786Z,99.89
2023-03-12T19:55:18.537Z,100.00
2023-03-12T19:58:04.926Z,98.64
2023-03-12T20:00:51.422Z,96.83
2023-03-12T20:03:43.601Z,98.36
2023-03-12T20:06:30.615Z,97.06
2023-03-12T20:09:17.129Z,96.97
2023-03-12T20:12:04.951Z,97.80
2023-03-12T20:14:51.376Z,97.94
2023-03-12T20:17:38.031Z,98.48
2023-03-12T20:20:25.327Z,100.00
2023-03-12T20:23:11.782Z,100.00
2023-03-12T20:25:57.981Z,100.00
2023-03-12T20:28:44.442Z,100.00
2023-03-12T20:31:31.396Z,100.00
2023-03-12T20:34:18.288Z,100.00
2023-03-12T20:37:04.778Z,100.00
2023-03-12T20:39:51.177Z,100.00
2023-03-12T20:42:37.619Z,100.00
2023-03-12T20:45:24.277Z,100.00
2023-03-12T20:48:11.138Z,100.00
2023-03-12T20:50:57.487Z,100.00
2023-03-12T20:53:44.093Z,100.00
2023-03-12T20:56:30.764Z,100.00
2023-03-12T20:59:17.362Z,100.00
2023-03-12T21:02:03.746Z,100.00
2023-03-12T21:04:52.580Z,100.00
2023-03-12T21:07:39.090Z,100.00
2023-03-12T21:10:25.816Z,100.00
2023-03-12T21:13:12.220Z,100.00
2023-03-12T21:15:58.414Z,100.00
2023-03-12T21:18:45.251Z,100.00
2023-03-12T21:21:32.201Z,100.00
2023-03-12T21:24:18.980Z,100.00
2023-03-12T21:27:05.629Z,100.00
2023-03-12T21:29:53.700Z,100.00
2023-03-12T21:32:40.208Z,100.00
2023-03-12T21:35:26.734Z,100.00
2023-03-12T21:38:14.160Z,100.00
2023-03-12T21:41:07.145Z,100.00
2023-03-12T21:43:53.743Z,100.00
2023-03-12T21:46:40.344Z,100.00
2023-03-12T21:49:27.311Z,100.00
2023-03-12T21:52:14.207Z,100.00
2023-03-12T21:55:00.601Z,100.00
2023-03-12T21:57:48.514Z,100.00
2023-03-12T22:00:35.992Z,100.00
2023-03-12T22:03:23.010Z,100.00
2023-03-12T22:06:10.212Z,100.00
2023-03-12T22:08:57.021Z,100.00
2023-03-12T22:11:44.256Z,100.00
2023-03-12T22:14:30.697Z,100.00
2023-03-12T22:17:17.661Z,100.00
2023-03-12T22:20:05.010Z,100.00
2023-03-12T22:22:51.513Z,100.00
2023-03-12T22:25:38.326Z,100.00
2023-03-12T22:28:25.970Z,100.00
2023-03-12T22:31:12.696Z,100.00
2023-03-12T22:33:59.330Z,100.00
2023-03-12T22:36:45.611Z,100.00
2023-03-12T22:39:31.811Z,100.00
2023-03-12T22:42:20.540Z,100.00
2023-03-12T22:45:07.976Z,100.00
2023-03-12T22:47:54.600Z,100.00
2023-03-12T22:50:41.192Z,100.00
2023-03-12T22:53:29.012Z,100.00
2023-03-12T22:56:16.238Z,100.00
2023-03-12T22:59:02.727Z,100.00
2023-03-12T23:01:49.170Z,100.00
2023-03-12T23:04:35.647Z,100.00
2023-03-12T23:07:22.402Z,100.00
2023-03-12T23:10:09.467Z,100.00
2023-03-12T23:12:55.964Z,100.00
2023-03-12T23:15:42.214Z,100.00
2023-03-12T23:18:28.543Z,100.00
2023-03-12T23:21:17.884Z,100.00
2023-03-12T23:24:07.341Z,100.00
2023-03-12T23:26:55.399Z,100.00
2023-03-12T23:29:41.898Z,100.00
2023-03-12T23:32:28.354Z,100.00
2023-03-12T23:35:14.883Z,100.00
2023-03-12T23:38:01.535Z,100.00
2023-03-12T23:40:48.371Z,100.00
2023-03-12T23:43:38.583Z,100.00
2023-03-12T23:46:27.165Z,100.00
2023-03-12T23:49:13.556Z,100.00
2023-03-12T23:51:59.667Z,100.00
2023-03-12T23:54:46.229Z,100.00
2023-03-12T23:57:32.595Z,100.00
